createdAt,value
2018-01-21T00:00:22.190Z,21.37
2018-01-21T00:02:49.681Z,18.80
2018-01-21T00:05:17.207Z,18.87
2018-01-21T00:07:44.713Z,18.03
2018-01-21T00:10:12.183Z,18.47
2018-01-21T00:12:39.711Z,18.17
2018-01-21T00:15:07.177Z,19.10
2018-01-21T00:17:34.719Z,23.03
2018-01-21T00:20:02.225Z,21.27
2018-01-21T00:22:40.625Z,19.30
2018-01-21T00:25:08.155Z,17.13
2018-01-21T00:27:35.641Z,21.13
2018-01-21T00:30:03.188Z,20.53
2018-01-21T00:32:30.660Z,18.90
2018-01-21T00:34:58.123Z,20.10
2018-01-21T00:37:25.950Z,20.60
2018-01-21T00:39:53.413Z,22.80
2018-01-21T00:42:21.536Z,19.23
2018-01-21T00:44:51.087Z,20.40
2018-01-21T00:47:18.550Z,21.07
2018-01-21T00:49:46.066Z,25.03
2018-01-21T00:52:13.554Z,18.50
2018-01-21T00:54:41.234Z,20.60
2018-01-21T00:57:08.746Z,21.70
2018-01-21T00:59:36.206Z,20.50
2018-01-21T01:02:03.687Z,21.70
2018-01-21T01:04:31.248Z,21.40
2018-01-21T01:06:58.707Z,20.77
2018-01-21T01:09:26.184Z,21.80
2018-01-21T01:11:53.666Z,20.60
2018-01-21T01:14:21.190Z,25.67
2018-01-21T01:16:48.699Z,19.90
2018-01-21T01:19:16.195Z,19.50
2018-01-21T01:21:43.654Z,18.60
2018-01-21T01:24:11.111Z,19.03
2018-01-21T01:26:38.601Z,21.10
2018-01-21T01:29:06.065Z,19.10
2018-01-21T01:31:33.554Z,19.97
2018-01-21T01:34:01.038Z,18.03
2018-01-21T01:36:28.495Z,18.90
2018-01-21T01:38:55.975Z,17.23
2018-01-21T01:41:23.435Z,21.00
2018-01-21T01:43:50.890Z,17.57
2018-01-21T01:46:18.384Z,18.40
2018-01-21T01:48:55.655Z,16.17
2018-01-21T01:51:23.174Z,15.77
2018-01-21T01:53:50.668Z,18.37
2018-01-21T01:56:18.139Z,17.97
2018-01-21T01:58:45.606Z,17.60
2018-01-21T02:01:13.052Z,15.27
2018-01-21T02:03:40.519Z,18.00
2018-01-21T02:06:08.007Z,17.60
2018-01-21T02:08:35.458Z,16.13
2018-01-21T02:11:02.956Z,19.53
2018-01-21T02:13:30.439Z,15.93
2018-01-21T02:15:57.911Z,17.63
2018-01-21T02:18:25.410Z,17.53
2018-01-21T02:20:52.883Z,16.23
2018-01-21T02:23:20.364Z,17.00
2018-01-21T02:25:47.834Z,13.93
2018-01-21T02:28:15.307Z,16.47
2018-01-21T02:30:42.803Z,18.37
2018-01-21T02:33:10.306Z,16.00
2018-01-21T02:35:37.779Z,17.48
2018-01-21T02:38:05.251Z,16.37
2018-01-21T02:40:32.733Z,20.27
2018-01-21T02:43:00.199Z,16.03
2018-01-21T02:45:27.706Z,17.37
2018-01-21T02:47:55.178Z,17.10
2018-01-21T02:50:22.649Z,16.60
2018-01-21T02:52:50.126Z,15.93
2018-01-21T02:55:17.628Z,16.20
2018-01-21T02:57:45.118Z,17.40
2018-01-21T03:00:12.576Z,20.47
2018-01-21T03:02:40.051Z,18.67
2018-01-21T03:05:07.508Z,16.37
2018-01-21T03:07:34.981Z,18.40
2018-01-21T03:10:02.490Z,17.77
2018-01-21T03:12:29.968Z,17.10
2018-01-21T03:14:57.458Z,17.23
2018-01-21T03:17:24.955Z,18.63
2018-01-21T03:19:52.410Z,15.53
2018-01-21T03:22:19.856Z,17.37
2018-01-21T03:24:47.318Z,17.00
2018-01-21T03:27:14.774Z,15.90
2018-01-21T03:29:42.255Z,16.00
2018-01-21T03:32:09.815Z,16.10
2018-01-21T03:34:37.286Z,16.37
2018-01-21T03:37:04.811Z,18.13
2018-01-21T03:39:32.291Z,18.17
2018-01-21T03:41:59.762Z,18.90
2018-01-21T03:44:27.262Z,20.03
2018-01-21T03:46:54.742Z,17.47
2018-01-21T03:49:22.223Z,15.48
2018-01-21T03:51:49.691Z,17.17
2018-01-21T03:54:17.164Z,22.17
2018-01-21T03:56:44.639Z,19.13
2018-01-21T03:59:12.143Z,18.40
2018-01-21T04:01:39.600Z,15.93
2018-01-21T04:04:07.053Z,19.60
2018-01-21T04:06:34.524Z,24.50
2018-01-21T04:09:02.070Z,17.20
2018-01-21T04:11:29.850Z,24.30
2018-01-21T04:13:57.493Z,19.90
2018-01-21T04:16:24.957Z,18.83
2018-01-21T04:18:52.414Z,21.17
2018-01-21T04:21:19.892Z,18.10
2018-01-21T04:23:47.371Z,21.47
2018-01-21T04:26:14.886Z,19.90
2018-01-21T04:28:42.402Z,19.43
2018-01-21T04:31:09.869Z,19.90
2018-01-21T04:33:37.337Z,23.87
2018-01-21T04:36:04.820Z,25.70
2018-01-21T04:38:32.278Z,23.80
2018-01-21T04:40:59.779Z,25.90
2018-01-21T04:43:27.331Z,28.00
2018-01-21T04:45:54.873Z,28.33
2018-01-21T04:48:22.375Z,25.27
2018-01-21T04:50:49.834Z,25.33
2018-01-21T04:53:17.312Z,28.00
2018-01-21T04:55:44.822Z,27.67
2018-01-21T04:58:12.280Z,29.37
2018-01-21T05:00:39.737Z,34.42
2018-01-21T05:03:08.102Z,35.57
2018-01-21T05:05:35.599Z,31.30
2018-01-21T05:08:03.057Z,40.23
2018-01-21T05:10:30.543Z,32.47
2018-01-21T05:12:58.051Z,36.67
2018-01-21T05:15:25.560Z,37.55
2018-01-21T05:17:53.043Z,33.25
2018-01-21T05:20:20.540Z,35.60
2018-01-21T05:22:48.036Z,39.60
2018-01-21T05:25:15.542Z,33.90
2018-01-21T05:27:43.028Z,36.15
2018-01-21T05:30:10.554Z,38.17
2018-01-21T05:32:38.121Z,38.05
2018-01-21T05:35:05.584Z,40.00
2018-01-21T05:37:33.079Z,35.35
2018-01-21T05:40:00.593Z,39.22
2018-01-21T05:42:28.092Z,38.90
2018-01-21T05:44:55.570Z,33.97
2018-01-21T05:47:23.108Z,33.85
2018-01-21T05:49:51.936Z,31.80
2018-01-21T05:52:23.400Z,33.33
2018-01-21T05:54:50.973Z,37.55
2018-01-21T05:57:18.436Z,29.13
2018-01-21T05:59:45.919Z,38.45
2018-01-21T06:02:13.428Z,34.22
2018-01-21T06:04:40.943Z,30.20
2018-01-21T06:07:08.416Z,21.92
2018-01-21T06:09:36.020Z,25.70
2018-01-21T06:12:03.537Z,22.85
2018-01-21T06:17:05.947Z,21.25
2018-01-21T06:19:33.464Z,18.80
2018-01-21T06:22:00.995Z,21.02
2018-01-21T06:24:28.454Z,19.45
2018-01-21T06:26:55.931Z,21.30
2018-01-21T06:29:23.400Z,21.50
2018-01-21T06:31:50.853Z,20.80
2018-01-21T06:34:18.330Z,22.05
2018-01-21T06:36:45.793Z,29.67
2018-01-21T06:39:13.446Z,23.73
2018-01-21T06:41:40.916Z,23.95
2018-01-21T06:44:08.446Z,24.85
2018-01-21T06:46:35.986Z,25.20
2018-01-21T06:49:05.718Z,30.08
2018-01-21T06:51:33.647Z,28.30
2018-01-21T06:54:16.190Z,34.03
2018-01-21T06:56:43.932Z,29.37
2018-01-21T06:59:11.534Z,30.20
2018-01-21T07:01:39.079Z,31.40
2018-01-21T07:04:06.550Z,33.63
2018-01-21T07:06:34.056Z,29.40
2018-01-21T07:09:02.140Z,29.15
2018-01-21T07:11:30.340Z,29.17
2018-01-21T07:13:57.849Z,27.00
2018-01-21T07:16:25.330Z,29.10
2018-01-21T07:18:52.837Z,28.90
2018-01-21T07:21:20.317Z,28.20
2018-01-21T07:23:47.809Z,27.58
2018-01-21T07:26:15.482Z,27.98
2018-01-21T07:28:42.974Z,29.00
2018-01-21T07:31:10.447Z,32.03
2018-01-21T07:33:38.117Z,30.20
2018-01-21T07:36:05.581Z,30.70
2018-01-21T07:38:33.043Z,26.80
2018-01-21T07:41:00.534Z,30.13
2018-01-21T07:43:28.013Z,25.47
2018-01-21T07:45:55.545Z,30.17
2018-01-21T07:48:23.021Z,25.20
2018-01-21T07:50:50.498Z,25.27
2018-01-21T07:53:17.957Z,21.90
2018-01-21T07:55:45.429Z,23.33
2018-01-21T07:58:12.938Z,23.80
2018-01-21T08:00:40.405Z,29.02
2018-01-21T08:03:07.879Z,23.60
2018-01-21T08:05:35.370Z,23.85
2018-01-21T08:08:02.917Z,19.90
2018-01-21T08:10:30.387Z,26.37
2018-01-21T08:12:57.863Z,20.83
2018-01-21T08:15:25.362Z,24.27
2018-01-21T08:17:52.811Z,22.60
2018-01-21T08:20:20.278Z,22.43
2018-01-21T08:22:47.761Z,24.50
2018-01-21T08:25:15.198Z,23.10
2018-01-21T08:27:42.680Z,23.37
2018-01-21T08:30:10.142Z,24.13
2018-01-21T08:32:37.654Z,22.07
2018-01-21T08:35:10.691Z,22.47
2018-01-21T08:37:43.694Z,25.53
2018-01-21T08:40:16.951Z,21.00
2018-01-21T08:42:44.456Z,22.77
2018-01-21T08:45:11.929Z,21.67
2018-01-21T08:47:39.393Z,26.97
2018-01-21T08:50:07.664Z,22.80
2018-01-21T08:52:35.122Z,21.43
2018-01-21T08:55:02.631Z,25.03
2018-01-21T08:57:30.145Z,22.27
2018-01-21T08:59:57.623Z,25.20
2018-01-21T09:02:25.151Z,22.60
2018-01-21T09:04:52.612Z,27.57
2018-01-21T09:07:20.122Z,24.33
2018-01-21T09:09:54.955Z,24.50
2018-01-21T09:12:22.694Z,26.30
2018-01-21T09:14:50.162Z,26.17
2018-01-21T09:17:18.951Z,23.20
2018-01-21T09:19:47.504Z,25.90
2018-01-21T09:22:15.190Z,26.67
2018-01-21T09:24:42.654Z,25.00
2018-01-21T09:27:10.128Z,25.60
2018-01-21T09:29:37.708Z,24.57
2018-01-21T09:32:05.155Z,25.17
2018-01-21T09:34:32.612Z,22.07
2018-01-21T09:37:00.091Z,24.60
2018-01-21T09:39:27.714Z,24.13
2018-01-21T09:41:55.182Z,26.03
2018-01-21T09:44:22.659Z,22.10
2018-01-21T09:46:50.490Z,24.43
2018-01-21T09:49:17.990Z,21.77
2018-01-21T09:51:45.459Z,20.00
2018-01-21T09:54:12.946Z,25.43
2018-01-21T09:56:40.442Z,22.13
2018-01-21T09:59:08.818Z,22.10
2018-01-21T10:01:36.311Z,25.30
2018-01-21T10:04:08.050Z,25.63
2018-01-21T10:06:35.528Z,23.00
2018-01-21T10:09:03.040Z,24.10
2018-01-21T10:11:30.840Z,25.63
2018-01-21T10:13:58.328Z,24.07
2018-01-21T10:16:25.852Z,23.37
2018-01-21T10:18:53.368Z,22.40
2018-01-21T10:21:20.854Z,26.90
2018-01-21T10:23:48.325Z,25.80
2018-01-21T10:26:15.861Z,25.33
2018-01-21T10:28:43.403Z,26.00
2018-01-21T10:31:10.908Z,26.27
2018-01-21T10:33:38.443Z,23.00
2018-01-21T10:36:05.887Z,25.13
2018-01-21T10:38:33.413Z,20.10
2018-01-21T10:41:00.930Z,25.87
2018-01-21T10:43:28.476Z,25.03
2018-01-21T10:45:56.027Z,23.00
2018-01-21T10:48:23.525Z,30.50
2018-01-21T10:50:51.006Z,24.53
2018-01-21T10:53:18.502Z,24.10
2018-01-21T10:55:46.142Z,24.50
2018-01-21T10:58:13.637Z,22.67
2018-01-21T11:00:47.203Z,22.13
2018-01-21T11:03:14.822Z,26.00
2018-01-21T11:05:42.428Z,23.33
2018-01-21T11:08:09.940Z,25.10
2018-01-21T11:10:37.389Z,25.13
2018-01-21T11:13:04.862Z,27.40
2018-01-21T11:15:32.583Z,22.20
2018-01-21T11:18:00.382Z,22.67
2018-01-21T11:20:27.843Z,22.50
2018-01-21T11:22:55.339Z,21.40
2018-01-21T11:25:22.815Z,21.10
2018-01-21T11:27:50.282Z,20.60
2018-01-21T11:30:17.757Z,30.20
2018-01-21T11:32:45.214Z,30.60
2018-01-21T11:35:12.690Z,21.80
2018-01-21T11:37:40.168Z,19.10
2018-01-21T11:40:07.825Z,19.93
2018-01-21T11:42:35.374Z,20.20
2018-01-21T11:45:02.844Z,19.60
2018-01-21T11:47:30.316Z,19.70
2018-01-21T11:49:57.778Z,22.77
2018-01-21T11:52:25.279Z,22.33
2018-01-21T11:54:52.827Z,20.70
2018-01-21T11:57:20.284Z,24.23
2018-01-21T11:59:47.778Z,30.20
2018-01-21T12:02:15.308Z,24.87
2018-01-21T12:04:42.759Z,28.03
2018-01-21T12:07:10.295Z,26.03
2018-01-21T12:09:37.778Z,24.50
2018-01-21T12:12:05.230Z,25.27
2018-01-21T12:14:32.781Z,23.13
2018-01-21T12:17:02.721Z,19.80
2018-01-21T12:19:30.254Z,26.10
2018-01-21T12:21:57.998Z,22.07
2018-01-21T12:24:25.458Z,24.70
2018-01-21T12:26:53.003Z,24.27
2018-01-21T12:29:20.572Z,26.40
2018-01-21T12:31:48.124Z,21.13
2018-01-21T12:34:15.603Z,22.60
2018-01-21T12:36:43.209Z,23.93
2018-01-21T12:39:10.670Z,20.37
2018-01-21T12:41:38.576Z,19.83
2018-01-21T12:44:06.103Z,18.13
2018-01-21T12:46:33.764Z,21.70
2018-01-21T12:49:01.336Z,22.67
2018-01-21T12:51:28.808Z,20.60
2018-01-21T12:53:56.338Z,17.60
2018-01-21T12:56:23.816Z,15.90
2018-01-21T12:58:51.303Z,19.23
2018-01-21T13:01:18.756Z,23.77
2018-01-21T13:03:46.238Z,19.53
2018-01-21T13:06:13.704Z,17.50
2018-01-21T13:08:41.154Z,20.10
2018-01-21T13:11:08.686Z,20.00
2018-01-21T13:13:36.164Z,19.70
2018-01-21T13:16:03.628Z,22.60
2018-01-21T13:18:31.151Z,18.20
2018-01-21T13:20:58.630Z,26.90
2018-01-21T13:23:26.102Z,22.67
2018-01-21T13:25:53.582Z,22.63
2018-01-21T13:28:23.027Z,18.90
2018-01-21T13:30:50.548Z,21.33
2018-01-21T13:33:18.030Z,23.63
2018-01-21T13:35:45.468Z,22.30
2018-01-21T13:38:12.979Z,20.80
2018-01-21T13:40:40.474Z,23.20
2018-01-21T13:43:07.936Z,23.63
2018-01-21T13:45:35.443Z,23.90
2018-01-21T13:48:02.951Z,19.30
2018-01-21T13:50:30.492Z,20.93
2018-01-21T13:52:58.043Z,22.50
2018-01-21T13:55:25.527Z,20.07
2018-01-21T13:57:53.046Z,25.80
2018-01-21T14:00:20.544Z,18.90
2018-01-21T14:02:48.030Z,20.30
2018-01-21T14:05:15.482Z,17.77
2018-01-21T14:07:42.946Z,20.97
2018-01-21T14:10:10.412Z,21.63
2018-01-21T14:12:37.851Z,26.93
2018-01-21T14:15:05.311Z,21.03
2018-01-21T14:17:32.820Z,20.73
2018-01-21T14:20:00.319Z,20.30
2018-01-21T14:22:27.969Z,21.00
2018-01-21T14:24:55.440Z,24.20
2018-01-21T14:27:22.906Z,24.27
2018-01-21T14:29:50.425Z,20.30
2018-01-21T14:32:17.899Z,20.07
2018-01-21T14:34:45.376Z,18.37
2018-01-21T14:37:12.902Z,18.57
2018-01-21T14:39:40.360Z,22.00
2018-01-21T14:42:07.886Z,18.80
2018-01-21T14:44:35.354Z,22.30
2018-01-21T14:47:02.828Z,16.43
2018-01-21T14:49:30.391Z,17.63
2018-01-21T14:51:57.880Z,20.00
2018-01-21T14:54:25.354Z,24.37
2018-01-21T14:56:52.827Z,15.43
2018-01-21T14:59:20.377Z,16.07
2018-01-21T15:01:47.862Z,21.50
2018-01-21T15:04:15.341Z,20.70
2018-01-21T15:06:42.789Z,20.53
2018-01-21T15:09:10.267Z,24.03
2018-01-21T15:11:37.735Z,21.97
2018-01-21T15:14:05.208Z,20.40
2018-01-21T15:16:32.694Z,22.00
2018-01-21T15:19:00.239Z,23.87
2018-01-21T15:21:27.770Z,21.70
2018-01-21T15:23:55.232Z,21.90
2018-01-21T15:26:22.679Z,20.17
2018-01-21T15:28:50.155Z,23.20
2018-01-21T15:31:17.674Z,20.77
2018-01-21T15:33:45.130Z,20.70
2018-01-21T15:36:12.625Z,22.07
2018-01-21T15:38:40.104Z,21.03
2018-01-21T15:41:07.562Z,24.63
2018-01-21T15:43:35.035Z,21.87
2018-01-21T15:46:02.540Z,20.60
2018-01-21T15:48:30.152Z,23.87
2018-01-21T15:50:57.618Z,16.50
2018-01-21T15:53:25.125Z,23.07
2018-01-21T15:55:52.694Z,25.10
2018-01-21T15:58:20.164Z,21.37
2018-01-21T16:00:47.628Z,21.77
2018-01-21T16:03:15.149Z,20.80
2018-01-21T16:05:42.615Z,19.30
2018-01-21T16:08:10.470Z,21.77
2018-01-21T16:10:37.958Z,22.43
2018-01-21T16:13:05.426Z,21.80
2018-01-21T16:15:32.920Z,19.37
2018-01-21T16:18:00.403Z,16.90
2018-01-21T16:20:27.863Z,21.63
2018-01-21T16:22:55.367Z,16.53
2018-01-21T16:25:23.666Z,16.70
2018-01-21T16:27:51.231Z,17.97
2018-01-21T16:30:18.724Z,17.50
2018-01-21T16:32:46.226Z,17.30
2018-01-21T16:35:13.735Z,19.20
2018-01-21T16:37:52.961Z,16.43
2018-01-21T16:40:20.456Z,16.03
2018-01-21T16:42:48.052Z,14.80
2018-01-21T16:45:15.670Z,14.53
2018-01-21T16:47:43.087Z,18.77
2018-01-21T16:50:10.547Z,16.43
2018-01-21T16:52:38.036Z,19.60
2018-01-21T16:55:05.613Z,16.27
2018-01-21T16:57:33.081Z,16.70
2018-01-21T17:00:00.567Z,16.93
2018-01-21T17:02:28.039Z,16.23
2018-01-21T17:04:55.499Z,16.27
2018-01-21T17:07:22.979Z,16.73
2018-01-21T17:09:50.430Z,17.53
2018-01-21T17:12:18.758Z,14.70
2018-01-21T17:14:46.294Z,15.70
2018-01-21T17:17:13.878Z,19.53
2018-01-21T17:19:41.395Z,14.37
2018-01-21T17:22:08.939Z,16.63
2018-01-21T17:24:36.423Z,15.40
2018-01-21T17:27:03.903Z,17.40
2018-01-21T17:29:31.401Z,14.30
2018-01-21T17:31:58.908Z,14.13
2018-01-21T17:34:26.397Z,19.03
2018-01-21T17:36:53.862Z,18.63
2018-01-21T17:39:21.443Z,13.77
2018-01-21T17:41:48.906Z,16.10
2018-01-21T17:44:16.450Z,13.82
2018-01-21T17:46:43.919Z,16.80
2018-01-21T17:49:11.798Z,18.13
2018-01-21T17:51:39.266Z,13.43
2018-01-21T17:54:06.754Z,11.33
2018-01-21T17:56:34.257Z,15.70
2018-01-21T17:59:01.728Z,10.77
2018-01-21T18:01:29.251Z,14.47
2018-01-21T18:03:56.805Z,12.77
2018-01-21T18:06:24.530Z,14.90
2018-01-21T18:08:52.068Z,15.02
2018-01-21T18:11:19.543Z,12.60
2018-01-21T18:13:47.071Z,16.23
2018-01-21T18:16:14.571Z,14.30
2018-01-21T18:18:42.065Z,12.40
2018-01-21T18:21:09.601Z,15.67
2018-01-21T18:23:37.087Z,13.70
2018-01-21T18:26:04.566Z,11.90
2018-01-21T18:28:32.012Z,12.63
2018-01-21T18:30:59.492Z,13.77
2018-01-21T18:33:26.964Z,11.73
2018-01-21T18:35:54.446Z,11.80
2018-01-21T18:38:21.911Z,12.07
2018-01-21T18:40:49.452Z,15.47
2018-01-21T18:43:16.949Z,12.70
2018-01-21T18:45:44.427Z,9.65
2018-01-21T18:48:11.886Z,12.90
2018-01-21T18:50:39.348Z,16.93
2018-01-21T18:53:06.808Z,15.10
2018-01-21T18:55:34.879Z,13.10
2018-01-21T18:58:02.365Z,14.63
2018-01-21T19:00:29.830Z,14.20
2018-01-21T19:02:57.309Z,16.27
2018-01-21T19:05:25.630Z,23.83
2018-01-21T19:07:53.485Z,19.10
2018-01-21T19:10:20.993Z,13.40
2018-01-21T19:12:48.507Z,16.23
2018-01-21T19:15:15.966Z,17.90
2018-01-21T19:17:43.432Z,14.97
2018-01-21T19:20:11.040Z,17.27
2018-01-21T19:22:38.551Z,12.70
2018-01-21T19:25:06.014Z,16.77
2018-01-21T19:27:33.561Z,15.83
2018-01-21T19:30:01.030Z,17.83
2018-01-21T19:32:28.482Z,14.63
2018-01-21T19:34:55.983Z,17.20
2018-01-21T19:37:23.440Z,21.60
2018-01-21T19:39:56.432Z,16.13
2018-01-21T19:42:30.526Z,20.23
2018-01-21T19:44:58.954Z,18.87
2018-01-21T19:47:26.417Z,17.60
2018-01-21T19:49:53.955Z,17.27
2018-01-21T19:52:21.469Z,19.00
2018-01-21T19:54:48.972Z,20.77
2018-01-21T19:57:16.473Z,17.07
2018-01-21T19:59:43.979Z,19.40
2018-01-21T20:02:11.499Z,20.57
2018-01-21T20:04:39.046Z,17.73
2018-01-21T20:07:06.547Z,18.60
2018-01-21T20:09:34.046Z,22.67
2018-01-21T20:12:01.563Z,15.73
2018-01-21T20:14:29.067Z,16.65
2018-01-21T20:16:56.665Z,21.13
2018-01-21T20:19:24.253Z,20.90
2018-01-21T20:21:51.955Z,20.12
2018-01-21T20:24:19.531Z,19.25
2018-01-21T20:26:47.052Z,21.23
2018-01-21T20:29:14.600Z,22.20
2018-01-21T20:31:42.128Z,18.67
2018-01-21T20:34:09.694Z,19.50
2018-01-21T20:36:37.523Z,21.95
2018-01-21T20:39:05.121Z,20.25
2018-01-21T20:41:32.599Z,22.27
2018-01-21T20:44:00.120Z,21.77
2018-01-21T20:46:27.650Z,23.00
2018-01-21T20:48:55.208Z,23.10
2018-01-21T20:51:28.275Z,22.13
2018-01-21T20:54:01.361Z,23.23
2018-01-21T20:56:28.885Z,19.65
2018-01-21T20:58:56.365Z,22.07
2018-01-21T21:01:23.881Z,21.65
2018-01-21T21:03:51.481Z,20.83
2018-01-21T21:06:18.943Z,23.00
2018-01-21T21:08:46.453Z,19.62
2018-01-21T21:11:13.963Z,22.10
2018-01-21T21:13:41.454Z,20.42
2018-01-21T21:16:08.977Z,21.40
2018-01-21T21:18:36.481Z,25.70
2018-01-21T21:21:03.968Z,22.73
2018-01-21T21:23:31.504Z,20.80
2018-01-21T21:25:59.098Z,20.00
2018-01-21T21:28:26.705Z,21.52
2018-01-21T21:30:54.232Z,27.57
2018-01-21T21:33:21.788Z,20.50
2018-01-21T21:35:49.305Z,21.33
2018-01-21T21:38:16.787Z,23.70
2018-01-21T21:40:44.368Z,23.25
2018-01-21T21:43:11.956Z,22.83
2018-01-21T21:45:39.451Z,20.27
2018-01-21T21:48:06.940Z,30.10
2018-01-21T21:50:34.500Z,22.73
2018-01-21T21:53:01.970Z,22.85
2018-01-21T21:55:29.488Z,25.23
2018-01-21T21:57:56.953Z,22.33
2018-01-21T22:00:24.478Z,24.33
2018-01-21T22:02:51.964Z,24.17
2018-01-21T22:05:19.555Z,24.73
2018-01-21T22:07:47.220Z,27.13
2018-01-21T22:10:14.693Z,25.02
2018-01-21T22:12:42.208Z,27.58
2018-01-21T22:15:09.810Z,25.92
2018-01-21T22:17:37.344Z,23.52
2018-01-21T22:20:04.979Z,23.60
2018-01-21T22:22:32.754Z,24.85
2018-01-21T22:25:00.236Z,30.25
2018-01-21T22:27:27.834Z,22.17
2018-01-21T22:29:55.295Z,28.60
2018-01-21T22:32:22.752Z,25.45
2018-01-21T22:34:50.213Z,21.87
2018-01-21T22:37:17.700Z,28.00
2018-01-21T22:39:45.203Z,24.20
2018-01-21T22:42:12.719Z,25.88
2018-01-21T22:44:40.218Z,24.08
2018-01-21T22:47:07.697Z,26.42
2018-01-21T22:49:35.206Z,25.95
2018-01-21T22:52:02.704Z,28.55
2018-01-21T22:54:30.279Z,24.83
2018-01-21T22:56:57.775Z,21.67
2018-01-21T22:59:25.300Z,28.42
2018-01-21T23:01:52.863Z,28.20
2018-01-21T23:04:20.362Z,29.90
2018-01-21T23:06:47.829Z,30.10
2018-01-21T23:09:15.390Z,25.95
2018-01-21T23:11:44.162Z,24.90
2018-01-21T23:14:11.667Z,28.08
2018-01-21T23:16:39.176Z,25.83
2018-01-21T23:19:06.779Z,28.10
2018-01-21T23:21:34.315Z,27.62
2018-01-21T23:24:01.831Z,24.95
2018-01-21T23:26:29.361Z,25.67
2018-01-21T23:28:56.885Z,24.77
2018-01-21T23:31:25.463Z,27.08
2018-01-21T23:33:52.946Z,29.20
2018-01-21T23:36:20.426Z,24.40
2018-01-21T23:38:47.915Z,25.95
2018-01-21T23:41:15.409Z,26.70
2018-01-21T23:43:42.917Z,31.45
2018-01-21T23:46:10.462Z,27.17
2018-01-21T23:48:37.927Z,26.85
2018-01-21T23:51:05.407Z,33.33
2018-01-21T23:53:32.999Z,34.22
2018-01-21T23:56:00.451Z,28.17
2018-01-21T23:58:27.957Z,28.58
